createdAt,value
2024-02-13T00:03:20.952Z,93.99
2024-02-13T00:13:28.320Z,94.10
2024-02-13T00:23:37.751Z,94.31
2024-02-13T00:33:45.246Z,93.95
2024-02-13T00:43:52.219Z,94.08
2024-02-13T00:53:59.385Z,94.54
2024-02-13T01:04:08.028Z,94.77
2024-02-13T01:14:16.274Z,94.62
2024-02-13T01:24:25.538Z,94.81
2024-02-13T01:34:32.829Z,94.73
2024-02-13T01:44:40.181Z,94.46
2024-02-13T01:54:48.525Z,94.46
2024-02-13T02:04:57.583Z,94.75
2024-02-13T02:15:05.476Z,94.63
2024-02-13T02:25:14.546Z,94.45
2024-02-13T02:35:21.103Z,94.50
2024-02-13T02:45:28.504Z,94.51
2024-02-13T02:55:35.567Z,94.55
2024-02-13T03:05:42.111Z,94.59
2024-02-13T03:15:49.334Z,94.91
2024-02-13T03:25:56.744Z,95.02
2024-02-13T03:36:03.910Z,94.97
2024-02-13T03:46:11.199Z,94.93
2024-02-13T03:56:18.392Z,94.89
2024-02-13T04:06:25.370Z,95.01
2024-02-13T04:16:32.749Z,95.11
2024-02-13T04:26:40.829Z,95.64
2024-02-13T04:36:48.578Z,95.60
2024-02-13T04:46:57.328Z,95.79
2024-02-13T04:57:05.067Z,96.04
2024-02-13T05:07:30.859Z,96.08
2024-02-13T05:17:37.997Z,96.23
2024-02-13T05:27:45.019Z,96.62
2024-02-13T05:37:53.042Z,96.80
2024-02-13T05:48:00.076Z,97.20
2024-02-13T05:58:07.545Z,97.17
2024-02-13T06:08:13.757Z,97.21
2024-02-13T06:18:20.995Z,97.49
2024-02-13T06:28:27.284Z,97.56
2024-02-13T06:38:36.044Z,97.47
2024-02-13T06:48:43.825Z,97.65
2024-02-13T06:58:51.661Z,97.60
2024-02-13T07:08:58.604Z,97.71
2024-02-13T07:19:06.001Z,97.79
2024-02-13T07:29:13.207Z,97.85
2024-02-13T07:39:20.592Z,98.10
2024-02-13T07:49:28.129Z,98.29
2024-02-13T07:59:35.256Z,98.12
2024-02-13T08:09:42.655Z,98.27
2024-02-13T08:19:49.920Z,98.48
2024-02-13T08:29:57.664Z,98.35
2024-02-13T08:40:04.925Z,98.39
2024-02-13T08:50:14.559Z,98.49
2024-02-13T09:00:23.519Z,96.40
2024-02-13T09:10:30.683Z,93.81
2024-02-13T09:20:37.840Z,91.37
2024-02-13T09:30:44.830Z,88.40
2024-02-13T09:40:52.280Z,86.64
2024-02-13T09:51:04.036Z,84.36
2024-02-13T10:01:11.353Z,82.77
2024-02-13T10:11:19.602Z,81.42
2024-02-13T10:21:26.277Z,80.97
2024-02-13T10:31:33.009Z,80.74
2024-02-13T10:41:39.788Z,79.62
2024-02-13T10:51:47.682Z,80.71
2024-02-13T11:02:01.116Z,81.20
2024-02-13T11:12:10.297Z,81.61
2024-02-13T11:22:20.448Z,81.94
2024-02-13T11:32:27.004Z,81.57
2024-02-13T11:42:33.992Z,82.05
2024-02-13T11:52:40.644Z,81.59
2024-02-13T12:02:48.923Z,81.74
2024-02-13T12:12:57.596Z,82.17
2024-02-13T12:23:07.286Z,82.24
2024-02-13T12:33:21.829Z,82.19
2024-02-13T12:43:29.838Z,82.68
2024-02-13T12:53:38.488Z,82.24
2024-02-13T13:03:45.031Z,81.64
2024-02-13T13:13:52.323Z,81.61
2024-02-13T13:23:57.898Z,81.86
2024-02-13T13:34:05.351Z,82.12
2024-02-13T13:44:12.101Z,81.56
2024-02-13T13:54:21.219Z,80.74
2024-02-13T14:04:27.754Z,78.36
2024-02-13T14:14:35.117Z,77.18
2024-02-13T14:24:42.560Z,75.95
2024-02-13T14:34:50.074Z,75.99
2024-02-13T14:44:57.203Z,76.48
2024-02-13T14:55:03.967Z,76.82
2024-02-13T15:05:11.612Z,77.38
2024-02-13T15:15:19.150Z,78.04
2024-02-13T15:25:25.499Z,77.97
2024-02-13T15:35:32.421Z,78.05
2024-02-13T15:45:57.587Z,78.51
2024-02-13T15:56:05.641Z,78.74
2024-02-13T16:06:12.848Z,78.80
2024-02-13T16:16:20.407Z,79.12
2024-02-13T16:26:28.458Z,79.23
2024-02-13T16:36:35.426Z,79.39
2024-02-13T16:46:46.451Z,79.72
2024-02-13T16:56:54.537Z,80.05
2024-02-13T17:07:02.008Z,80.17
2024-02-13T17:17:10.467Z,80.31
2024-02-13T17:27:17.627Z,80.54
2024-02-13T17:37:23.833Z,80.86
2024-02-13T17:47:31.023Z,81.02
2024-02-13T17:57:38.163Z,81.29
2024-02-13T18:07:43.713Z,81.77
2024-02-13T18:17:53.854Z,81.98
2024-02-13T18:28:01.075Z,81.99
2024-02-13T18:38:08.675Z,82.38
2024-02-13T18:48:16.592Z,82.31
2024-02-13T18:58:23.922Z,82.28
2024-02-13T19:08:31.015Z,82.20
2024-02-13T19:18:39.659Z,82.05
2024-02-13T19:28:47.507Z,82.08
2024-02-13T19:38:55.700Z,81.96
2024-02-13T19:49:02.287Z,81.89
2024-02-13T19:59:09.493Z,81.84
2024-02-13T20:09:15.827Z,81.86
2024-02-13T20:19:23.377Z,81.65
2024-02-13T20:29:29.712Z,81.94
2024-02-13T20:39:35.474Z,81.97
2024-02-13T20:49:44.074Z,81.87
2024-02-13T20:59:52.177Z,81.56
2024-02-13T21:09:57.952Z,81.52
2024-02-13T21:20:05.756Z,81.56
2024-02-13T21:30:13.122Z,81.61
2024-02-13T21:40:20.127Z,81.80
2024-02-13T21:50:27.790Z,82.02
2024-02-13T22:00:35.004Z,82.27
2024-02-13T22:10:41.430Z,82.39
2024-02-13T22:20:48.605Z,82.46
2024-02-13T22:30:55.784Z,82.41
2024-02-13T22:41:02.876Z,82.58
2024-02-13T22:51:10.086Z,82.82
2024-02-13T23:01:17.605Z,83.30
2024-02-13T23:11:24.858Z,83.71
2024-02-13T23:21:31.416Z,83.92
2024-02-13T23:31:39.470Z,83.82
2024-02-13T23:41:45.979Z,84.07
2024-02-13T23:51:53.142Z,84.62
